Time;durP1;ratioP1;P1;durP2;ratioP2;P2;SDS_P1;SDS_P2;PMS_P1;PMS_P2;Temp;Humidity;BMP_temperature;BMP_pressure;BME280_temperature;BME280_humidity;BME280_pressure;Samples;Min_cycle;Max_cycle;Signal;HPM_P1;HPM_P2
2022/08/16 00:00:43;;;;;;;7.30;4.78;;;21.90;99.90;;;;;;5114931;28;20171;-49
2022/08/16 00:03:10;;;;;;;7.45;4.57;;;21.90;99.90;;;;;;5114426;28;20225;-44
2022/08/16 00:05:36;;;;;;;12.77;4.90;;;21.80;99.90;;;;;;5114915;28;20157;-44
2022/08/16 00:08:02;;;;;;;8.68;5.18;;;21.80;99.90;;;;;;5114730;28;20199;-44
2022/08/16 00:10:32;;;;;;;47.53;19.63;;;21.80;99.90;;;;;;5113416;28;20527;-44
2022/08/16 00:13:02;;;;;;;28.25;11.25;;;21.80;99.90;;;;;;5114726;28;20233;-46
2022/08/16 00:15:33;;;;;;;9.73;4.85;;;21.70;99.90;;;;;;5114497;28;20632;-46
2022/08/16 00:17:58;;;;;;;5.15;4.03;;;21.70;99.90;;;;;;5114525;28;20164;-51
2022/08/16 00:20:24;;;;;;;5.30;4.35;;;21.60;99.90;;;;;;5096783;28;20587;-53
2022/08/16 00:22:50;;;;;;;8.10;4.22;;;21.60;99.90;;;;;;5114498;28;20164;-52
2022/08/16 00:25:19;;;;;;;22.73;8.88;;;21.60;99.90;;;;;;5096077;28;20213;-52
2022/08/16 00:27:45;;;;;;;65.82;18.05;;;21.60;99.90;;;;;;5114356;28;20168;-52
2022/08/16 00:30:14;;;;;;;12.63;6.15;;;21.50;99.90;;;;;;5114508;28;20524;-50
2022/08/16 00:32:42;;;;;;;10.85;5.85;;;21.50;99.90;;;;;;5114305;28;20163;-45
2022/08/16 00:35:10;;;;;;;41.75;14.13;;;21.50;99.90;;;;;;5114277;28;20708;-44
2022/08/16 00:37:36;;;;;;;39.97;15.68;;;21.50;99.90;;;;;;5114359;28;20173;-44
2022/08/16 00:40:05;;;;;;;33.17;10.10;;;21.50;99.90;;;;;;5114229;28;20168;-46
2022/08/16 00:42:30;;;;;;;52.53;19.23;;;21.40;99.90;;;;;;5114150;28;20772;-48
2022/08/16 00:45:00;;;;;;;20.42;9.18;;;21.50;99.90;;;;;;5114457;28;20246;-50
2022/08/16 00:47:26;;;;;;;78.22;32.25;;;21.50;99.90;;;;;;5114392;28;20165;-48
2022/08/16 00:49:52;;;;;;;47.03;21.63;;;21.40;99.90;;;;;;5114307;28;20168;-50
2022/08/16 00:52:18;;;;;;;10.98;6.60;;;21.40;99.90;;;;;;5113879;28;20207;-49
2022/08/16 00:54:44;;;;;;;9.20;5.32;;;21.40;99.90;;;;;;5113794;28;20636;-51
2022/08/16 00:57:11;;;;;;;5.97;4.40;;;21.30;99.90;;;;;;5113864;28;20192;-47
2022/08/16 00:59:38;;;;;;;28.40;14.82;;;21.30;99.90;;;;;;5113736;28;20180;-44
2022/08/16 01:02:07;;;;;;;39.58;19.13;;;21.40;99.90;;;;;;5113716;28;20175;-44
2022/08/16 01:04:33;;;;;;;25.65;13.95;;;21.30;99.90;;;;;;5113935;28;20500;-44
2022/08/16 01:07:01;;;;;;;21.63;11.77;;;21.30;99.90;;;;;;5113516;28;20255;-44
2022/08/16 01:09:26;;;;;;;12.10;8.23;;;21.20;99.90;;;;;;5113235;28;20243;-44
2022/08/16 01:11:53;;;;;;;16.05;7.32;;;21.20;99.90;;;;;;5113914;28;20203;-44
2022/08/16 01:14:32;;;;;;;9.32;5.68;;;21.20;99.90;;;;;;5113288;28;20311;-43
2022/08/16 01:16:58;;;;;;;6.90;5.13;;;21.20;99.90;;;;;;5113606;28;20199;-43
2022/08/16 01:19:33;;;;;;;4.80;4.25;;;21.20;99.90;;;;;;5113764;28;20213;-44
2022/08/16 01:22:19;;;;;;;5.78;5.13;;;21.10;99.90;;;;;;5113280;28;20168;-43
2022/08/16 01:24:59;;;;;;;33.42;17.90;;;21.00;99.90;;;;;;5113264;28;20165;-44
2022/08/16 01:27:28;;;;;;;27.67;14.23;;;20.90;99.90;;;;;;5113558;28;20164;-44
2022/08/16 01:30:06;;;;;;;31.58;13.30;;;20.90;99.90;;;;;;5113487;28;20244;-43
2022/08/16 01:32:37;;;;;;;14.85;8.07;;;20.90;99.90;;;;;;5113054;28;20247;-43
2022/08/16 01:35:15;;;;;;;23.27;13.38;;;20.90;99.90;;;;;;5113003;28;20202;-45
2022/08/16 01:37:43;;;;;;;9.32;5.70;;;20.90;99.90;;;;;;5113019;28;20161;-44
2022/08/16 01:40:10;;;;;;;7.03;4.95;;;20.90;99.90;;;;;;5113009;28;20640;-44
2022/08/16 01:42:36;;;;;;;13.02;7.65;;;20.80;99.90;;;;;;5113276;28;20536;-43
2022/08/16 01:45:03;;;;;;;22.55;10.85;;;20.80;99.90;;;;;;5113286;28;20172;-43
2022/08/16 01:47:30;;;;;;;14.05;7.47;;;20.70;99.90;;;;;;5112776;28;20187;-43
2022/08/16 01:49:55;;;;;;;29.92;14.05;;;20.70;99.90;;;;;;5113100;28;20165;-44
2022/08/16 01:52:21;;;;;;;12.52;6.88;;;20.60;99.90;;;;;;5113110;28;20161;-43
2022/08/16 01:54:47;;;;;;;7.65;5.40;;;20.60;99.90;;;;;;5112606;28;20345;-44
2022/08/16 01:57:13;;;;;;;17.05;9.27;;;20.60;99.90;;;;;;5112903;28;20208;-51
2022/08/16 01:59:39;;;;;;;7.93;5.25;;;20.60;99.90;;;;;;5112635;28;20173;-48
2022/08/16 02:02:05;;;;;;;16.05;8.90;;;20.60;99.90;;;;;;5112518;28;20168;-44
2022/08/16 02:04:32;;;;;;;6.63;4.40;;;20.50;99.90;;;;;;5112579;28;20175;-46
2022/08/16 02:06:58;;;;;;;4.53;4.07;;;20.60;99.90;;;;;;5112449;28;20624;-45
2022/08/16 02:09:25;;;;;;;6.85;4.82;;;20.50;99.90;;;;;;5113044;28;20179;-43
2022/08/16 02:11:57;;;;;;;7.53;5.50;;;20.50;99.90;;;;;;5112692;28;20511;-45
2022/08/16 02:14:28;;;;;;;9.90;7.78;;;20.40;99.90;;;;;;5112457;28;20227;-45
2022/08/16 02:16:56;;;;;;;6.60;4.50;;;20.50;99.90;;;;;;5112705;28;20167;-43
2022/08/16 02:19:22;;;;;;;6.60;4.20;;;20.50;99.90;;;;;;5112963;28;20179;-44
2022/08/16 02:21:52;;;;;;;6.68;4.50;;;20.60;99.90;;;;;;5111697;28;20239;-43
2022/08/16 02:24:18;;;;;;;11.93;4.60;;;20.50;99.90;;;;;;5112298;28;20160;-44
2022/08/16 02:26:43;;;;;;;11.88;7.03;;;20.50;99.90;;;;;;5112275;28;20176;-43
2022/08/16 02:29:09;;;;;;;5.45;4.43;;;20.50;99.90;;;;;;5112273;28;20523;-44
2022/08/16 02:31:35;;;;;;;4.95;4.10;;;20.40;99.90;;;;;;5112153;28;20239;-44
2022/08/16 02:34:01;;;;;;;5.85;3.97;;;20.40;99.90;;;;;;5112145;28;20200;-44
2022/08/16 02:36:27;;;;;;;5.72;4.55;;;20.30;99.90;;;;;;5112186;28;20729;-44
2022/08/16 02:38:52;;;;;;;5.18;4.65;;;20.30;99.90;;;;;;5112589;28;20616;-45
2022/08/16 02:41:18;;;;;;;7.18;4.38;;;20.30;99.90;;;;;;5112096;28;20168;-45
2022/08/16 02:43:44;;;;;;;6.20;4.43;;;20.30;99.90;;;;;;5112135;28;20171;-45
2022/08/16 02:46:10;;;;;;;8.10;4.68;;;20.20;99.90;;;;;;5112058;28;20176;-44
2022/08/16 02:48:37;;;;;;;6.30;4.25;;;20.10;99.90;;;;;;5112006;28;20240;-45
2022/08/16 02:51:05;;;;;;;5.82;4.03;;;20.20;99.90;;;;;;5111942;28;20631;-44
2022/08/16 02:53:31;;;;;;;4.35;3.90;;;20.10;99.90;;;;;;5111852;28;20214;-48
2022/08/16 02:55:57;;;;;;;7.68;4.47;;;20.10;99.90;;;;;;5111921;28;20188;-45
2022/08/16 02:58:23;;;;;;;5.20;4.50;;;20.10;99.90;;;;;;5112256;28;20226;-44
2022/08/16 03:00:50;;;;;;;6.00;4.63;;;20.20;99.90;;;;;;5111929;28;20260;-43
2022/08/16 03:03:16;;;;;;;5.07;4.43;;;20.10;99.90;;;;;;5112104;28;20175;-52
2022/08/16 03:05:42;;;;;;;4.30;3.90;;;20.10;99.90;;;;;;5111931;28;20160;-47
2022/08/16 03:08:08;;;;;;;5.70;3.72;;;20.10;99.90;;;;;;5111947;28;20175;-47
2022/08/16 03:10:34;;;;;;;4.82;4.32;;;20.10;99.90;;;;;;5112078;28;20211;-51
2022/08/16 03:13:00;;;;;;;4.65;4.25;;;20.10;99.90;;;;;;5111596;28;20239;-51
2022/08/16 03:15:26;;;;;;;5.53;3.95;;;20.00;99.90;;;;;;5112099;28;20192;-51
2022/08/16 03:17:52;;;;;;;5.82;4.22;;;20.00;99.90;;;;;;5112043;28;20157;-50
2022/08/16 03:20:18;;;;;;;4.65;4.20;;;20.00;99.90;;;;;;5111701;28;20173;-52
2022/08/16 03:22:44;;;;;;;6.10;4.55;;;20.00;99.90;;;;;;5111831;28;20168;-50
2022/08/16 03:25:13;;;;;;;4.65;4.20;;;19.90;99.90;;;;;;5111694;28;20193;-49
2022/08/16 03:27:39;;;;;;;6.57;4.45;;;20.00;99.90;;;;;;5111520;28;20327;-44
2022/08/16 03:30:12;;;;;;;7.68;4.72;;;19.80;99.90;;;;;;5111319;28;20169;-47
2022/08/16 03:32:38;;;;;;;5.18;4.40;;;19.70;99.90;;;;;;5113001;28;20180;-46
2022/08/16 03:35:05;;;;;;;9.10;5.35;;;19.70;99.90;;;;;;5097038;28;20204;-50
2022/08/16 03:37:30;;;;;;;5.68;4.63;;;19.70;99.90;;;;;;5096933;28;20168;-49
2022/08/16 03:39:56;;;;;;;8.55;5.32;;;19.60;99.90;;;;;;5115341;28;20226;-47
2022/08/16 03:42:22;;;;;;;11.38;5.72;;;19.60;99.90;;;;;;5115871;28;20251;-46
2022/08/16 03:44:47;;;;;;;7.28;6.03;;;19.60;99.90;;;;;;5115333;28;20571;-50
2022/08/16 03:47:13;;;;;;;7.40;4.95;;;19.60;99.90;;;;;;5115237;28;20623;-49
2022/08/16 03:49:39;;;;;;;6.53;5.03;;;19.60;99.90;;;;;;5115248;28;20160;-51
2022/08/16 03:52:06;;;;;;;5.80;5.18;;;19.60;99.90;;;;;;5115280;28;20172;-49
2022/08/16 03:54:32;;;;;;;5.30;4.32;;;19.60;99.90;;;;;;5114955;28;20450;-44
2022/08/16 03:56:58;;;;;;;5.18;3.78;;;19.60;99.90;;;;;;5114976;28;20172;-47
2022/08/16 03:59:23;;;;;;;5.25;4.15;;;19.70;99.90;;;;;;5115383;28;20165;-49
2022/08/16 04:01:49;;;;;;;7.13;4.90;;;19.70;99.90;;;;;;5114974;28;20639;-44
2022/08/16 04:04:15;;;;;;;4.50;4.10;;;19.60;99.90;;;;;;5114844;28;20259;-44
2022/08/16 04:06:40;;;;;;;4.72;3.88;;;19.70;99.90;;;;;;5114924;28;20161;-49
2022/08/16 04:09:06;;;;;;;4.60;3.90;;;19.60;99.90;;;;;;5114835;28;20600;-49
2022/08/16 04:11:31;;;;;;;7.35;4.40;;;19.70;99.90;;;;;;5115014;28;20175;-52
2022/08/16 04:13:57;;;;;;;4.15;3.75;;;19.60;99.90;;;;;;5114415;28;20298;-45
2022/08/16 04:16:22;;;;;;;4.65;3.80;;;19.60;99.90;;;;;;5115078;28;20191;-50
2022/08/16 04:18:48;;;;;;;6.60;3.88;;;19.50;99.90;;;;;;5114534;28;20164;-44
2022/08/16 04:21:14;;;;;;;7.57;3.97;;;19.60;99.90;;;;;;5114485;28;20165;-47
2022/08/16 04:23:40;;;;;;;7.43;4.18;;;19.50;99.90;;;;;;5114514;28;20218;-47
2022/08/16 04:26:06;;;;;;;5.25;4.05;;;19.40;99.90;;;;;;5114727;28;20551;-46
2022/08/16 04:28:32;;;;;;;5.90;4.78;;;19.40;99.90;;;;;;5114269;28;20168;-44
2022/08/16 04:30:57;;;;;;;5.75;3.97;;;19.40;99.90;;;;;;5114346;28;20161;-44
2022/08/16 04:33:24;;;;;;;7.30;5.68;;;19.40;99.90;;;;;;5114570;28;20199;-44
2022/08/16 04:35:50;;;;;;;4.65;4.00;;;19.40;99.90;;;;;;5114504;28;20255;-47
2022/08/16 04:38:18;;;;;;;6.10;4.45;;;19.30;99.90;;;;;;5114131;28;20161;-46
2022/08/16 04:40:44;;;;;;;4.72;4.13;;;19.30;99.90;;;;;;5114456;28;20179;-44
2022/08/16 04:43:09;;;;;;;4.70;4.18;;;19.30;99.90;;;;;;5114136;28;20512;-44
2022/08/16 04:45:35;;;;;;;7.18;4.55;;;19.40;99.90;;;;;;5113656;28;20177;-45
2022/08/16 04:48:01;;;;;;;9.27;5.35;;;19.40;99.90;;;;;;5114093;28;20173;-43
2022/08/16 04:50:27;;;;;;;12.15;5.78;;;19.40;99.90;;;;;;5095827;28;20184;-43
2022/08/16 04:52:53;;;;;;;9.02;5.03;;;19.40;99.90;;;;;;5114231;28;20167;-45
2022/08/16 04:55:23;;;;;;;7.63;5.32;;;19.40;99.90;;;;;;5095420;28;20204;-44
2022/08/16 04:57:51;;;;;;;7.60;5.22;;;19.30;99.90;;;;;;5113538;28;20200;-44
2022/08/16 05:00:21;;;;;;;14.02;5.22;;;19.30;99.90;;;;;;5113947;28;20177;-45
2022/08/16 05:02:49;;;;;;;13.48;5.38;;;19.30;99.90;;;;;;5113630;28;20175;-44
2022/08/16 05:05:16;;;;;;;7.53;5.40;;;19.30;99.90;;;;;;5113694;28;20620;-44
2022/08/16 05:07:41;;;;;;;6.90;4.47;;;19.30;99.90;;;;;;5113661;28;20164;-44
2022/08/16 05:10:08;;;;;;;8.80;5.80;;;19.40;99.90;;;;;;5111658;28;20457;-41
2022/08/16 05:12:34;;;;;;;7.60;5.80;;;19.50;99.90;;;;;;5112504;28;20161;-43
2022/08/16 05:15:00;;;;;;;7.85;6.07;;;19.50;99.90;;;;;;5132594;27;20195;-45
2022/08/16 05:17:26;;;;;;;8.88;5.80;;;19.40;99.90;;;;;;5132467;27;20164;-43
2022/08/16 05:19:52;;;;;;;6.75;5.43;;;19.50;99.90;;;;;;5120106;27;20573;-42
2022/08/16 05:22:17;;;;;;;10.50;5.57;;;19.60;99.90;;;;;;5112141;28;20165;-40
2022/08/16 05:24:43;;;;;;;12.32;6.07;;;19.70;99.90;;;;;;5112164;28;20161;-45
2022/08/16 05:27:09;;;;;;;11.90;5.72;;;19.60;99.90;;;;;;5112111;28;20191;-41
2022/08/16 05:29:35;;;;;;;9.95;5.55;;;19.80;99.90;;;;;;5111924;28;20636;-42
2022/08/16 05:32:01;;;;;;;13.90;6.00;;;19.90;99.90;;;;;;5093557;28;20164;-41
2022/08/16 05:34:27;;;;;;;17.88;5.80;;;19.90;99.90;;;;;;5111595;28;20208;-42
2022/08/16 05:36:56;;;;;;;9.00;5.47;;;20.00;99.90;;;;;;5111988;28;20192;-41
2022/08/16 05:39:23;;;;;;;7.10;4.68;;;20.10;99.90;;;;;;5112268;28;20176;-41
2022/08/16 05:41:49;;;;;;;6.30;4.00;;;20.20;99.90;;;;;;5111753;28;20169;-42
2022/08/16 05:44:15;;;;;;;5.75;4.05;;;20.40;99.90;;;;;;5109526;28;20184;-43
2022/08/16 05:46:43;;;;;;;7.45;4.78;;;20.40;99.90;;;;;;5111403;28;20179;-42
2022/08/16 05:49:11;;;;;;;5.93;4.53;;;20.50;99.90;;;;;;5111278;28;20180;-47
2022/08/16 05:51:37;;;;;;;5.55;3.70;;;20.50;99.90;;;;;;5112275;28;20243;-50
2022/08/16 05:54:03;;;;;;;7.03;4.05;;;20.50;99.90;;;;;;5112586;28;20638;-43
2022/08/16 05:56:28;;;;;;;4.72;4.10;;;20.60;99.90;;;;;;5112038;28;20168;-41
2022/08/16 05:58:54;;;;;;;7.35;3.97;;;20.60;99.90;;;;;;5113022;28;20300;-47
2022/08/16 06:01:19;;;;;;;4.38;3.53;;;20.50;99.90;;;;;;5113029;28;20203;-45
2022/08/16 06:03:45;;;;;;;4.45;4.00;;;20.60;99.90;;;;;;5094290;28;20708;-46
2022/08/16 06:06:11;;;;;;;4.53;3.80;;;20.60;99.90;;;;;;5112550;28;20251;-49
2022/08/16 06:08:36;;;;;;;5.03;3.67;;;20.60;99.90;;;;;;5112497;28;20168;-44
2022/08/16 06:11:02;;;;;;;6.85;4.13;;;20.90;99.90;;;;;;5112550;28;20602;-42
2022/08/16 06:13:27;;;;;;;4.38;3.40;;;21.10;99.90;;;;;;5112297;28;20220;-45
2022/08/16 06:15:53;;;;;;;4.55;3.90;;;21.20;99.90;;;;;;5112950;28;20160;-47
2022/08/16 06:18:19;;;;;;;3.28;2.97;;;21.40;99.90;;;;;;5112442;28;20527;-49
2022/08/16 06:20:44;;;;;;;4.35;3.95;;;21.50;99.90;;;;;;5112346;28;20239;-48
2022/08/16 06:23:10;;;;;;;3.67;3.38;;;21.60;99.90;;;;;;5112656;28;20624;-44
2022/08/16 06:25:36;;;;;;;6.05;3.30;;;21.70;99.90;;;;;;5112365;28;20176;-47
2022/08/16 06:28:04;;;;;;;3.30;3.00;;;21.80;99.90;;;;;;5094623;28;20173;-48
2022/08/16 06:30:31;;;;;;;4.00;3.28;;;21.80;99.90;;;;;;5112465;28;20203;-46
2022/08/16 06:32:58;;;;;;;4.65;3.58;;;22.00;99.90;;;;;;5112213;28;20183;-47
2022/08/16 06:35:24;;;;;;;3.83;3.53;;;22.00;99.90;;;;;;5112724;28;20212;-47
2022/08/16 06:37:50;;;;;;;3.90;3.20;;;22.10;99.90;;;;;;5112500;28;20248;-46
2022/08/16 06:40:15;;;;;;;5.05;3.35;;;22.20;99.90;;;;;;5112207;28;20213;-48
2022/08/16 06:42:41;;;;;;;6.68;3.60;;;22.30;99.90;;;;;;5112161;28;20160;-49
2022/08/16 06:45:08;;;;;;;3.67;3.38;;;22.50;99.90;;;;;;5112140;28;20628;-46
2022/08/16 06:47:34;;;;;;;3.72;3.33;;;22.60;99.90;;;;;;5112390;28;20180;-48
2022/08/16 06:49:59;;;;;;;3.38;3.00;;;22.60;99.90;;;;;;5112102;28;20537;-45
2022/08/16 06:52:25;;;;;;;3.67;2.97;;;22.70;99.90;;;;;;5112062;28;20210;-45
2022/08/16 06:54:50;;;;;;;4.30;3.70;;;22.90;99.90;;;;;;5112406;28;20200;-47
2022/08/16 06:57:18;;;;;;;5.70;3.45;;;23.00;99.90;;;;;;5112030;28;20167;-46
2022/08/16 06:59:45;;;;;;;3.28;3.00;;;23.00;99.90;;;;;;5111961;28;20169;-50
2022/08/16 07:02:11;;;;;;;3.92;3.35;;;23.10;99.90;;;;;;5112193;28;20176;-47
2022/08/16 07:04:36;;;;;;;4.45;3.30;;;23.20;99.90;;;;;;5111985;28;20225;-48
2022/08/16 07:07:04;;;;;;;4.20;3.22;;;23.20;99.90;;;;;;5112703;28;20558;-48
2022/08/16 07:09:30;;;;;;;5.15;3.67;;;23.20;99.90;;;;;;5116285;28;20169;-46
2022/08/16 07:11:56;;;;;;;3.83;3.42;;;23.40;99.90;;;;;;5097509;28;20527;-48
2022/08/16 07:14:22;;;;;;;3.72;3.33;;;23.50;99.90;;;;;;5115988;28;20687;-48
2022/08/16 07:16:47;;;;;;;5.03;3.50;;;23.50;99.90;;;;;;5115776;28;20167;-49
2022/08/16 07:19:15;;;;;;;4.47;3.80;;;23.60;99.90;;;;;;5115704;28;20161;-45
2022/08/16 07:21:41;;;;;;;4.43;3.88;;;23.60;99.90;;;;;;5115770;28;20168;-49
2022/08/16 07:24:07;;;;;;;3.92;3.47;;;23.70;99.90;;;;;;5115773;28;20172;-48
2022/08/16 07:26:33;;;;;;;3.92;3.45;;;23.80;99.90;;;;;;5116041;28;20176;-49
2022/08/16 07:28:59;;;;;;;3.75;3.10;;;23.80;99.90;;;;;;5115812;28;20228;-49
2022/08/16 07:31:25;;;;;;;11.23;3.70;;;23.90;99.90;;;;;;5115760;28;20206;-46
2022/08/16 07:33:51;;;;;;;4.15;3.63;;;24.00;99.90;;;;;;5116027;28;20196;-42
2022/08/16 07:36:17;;;;;;;6.88;3.85;;;24.10;99.90;;;;;;5115441;28;20688;-42
2022/08/16 07:38:43;;;;;;;5.93;3.53;;;24.10;99.90;;;;;;5113189;28;20177;-41
2022/08/16 07:41:09;;;;;;;6.40;4.13;;;24.20;99.90;;;;;;5127423;27;20168;-42
2022/08/16 07:43:35;;;;;;;5.13;3.75;;;24.30;99.90;;;;;;5134434;27;20168;-45
2022/08/16 07:46:00;;;;;;;5.43;4.35;;;24.20;99.90;;;;;;5134472;27;20167;-45
2022/08/16 07:48:26;;;;;;;7.05;4.05;;;24.20;99.90;;;;;;5134340;27;20178;-41
2022/08/16 07:50:52;;;;;;;6.38;4.30;;;24.30;99.90;;;;;;5134715;27;20247;-47
2022/08/16 07:53:19;;;;;;;4.72;4.30;;;24.50;99.90;;;;;;5134199;27;20212;-43
2022/08/16 07:55:44;;;;;;;7.72;4.57;;;24.30;99.90;;;;;;5134287;27;20168;-43
2022/08/16 07:58:10;;;;;;;7.50;4.28;;;24.50;99.90;;;;;;5134150;27;20497;-46
2022/08/16 08:00:36;;;;;;;8.25;4.57;;;24.70;99.90;;;;;;5134127;27;20167;-46
2022/08/16 08:03:03;;;;;;;6.50;3.95;;;24.50;99.90;;;;;;5119651;27;20217;-43
2022/08/16 08:05:29;;;;;;;7.75;4.85;;;24.50;99.90;;;;;;5113486;28;20526;-43
2022/08/16 08:07:55;;;;;;;6.60;4.22;;;24.70;99.90;;;;;;5113319;28;20168;-42
2022/08/16 08:10:22;;;;;;;7.30;4.47;;;24.80;99.90;;;;;;5113847;28;20659;-48
2022/08/16 08:12:50;;;;;;;4.97;4.15;;;24.70;99.90;;;;;;5113798;28;20157;-43
2022/08/16 08:15:17;;;;;;;10.68;5.05;;;24.70;99.90;;;;;;5113315;28;20698;-44
2022/08/16 08:17:43;;;;;;;8.48;4.35;;;25.00;99.90;;;;;;5113179;28;20682;-45
2022/08/16 08:20:12;;;;;;;8.50;5.65;;;25.00;99.90;;;;;;5112153;28;20687;-45
2022/08/16 08:22:38;;;;;;;4.80;4.10;;;25.10;99.90;;;;;;5113441;28;20204;-45
2022/08/16 08:25:05;;;;;;;6.18;5.05;;;25.20;99.90;;;;;;5113082;28;20169;-45
2022/08/16 08:27:30;;;;;;;5.65;4.07;;;25.30;99.90;;;;;;5113455;28;20200;-44
2022/08/16 08:29:57;;;;;;;6.63;4.63;;;25.50;99.90;;;;;;5113252;28;20245;-43
2022/08/16 08:32:24;;;;;;;5.38;4.30;;;25.50;99.90;;;;;;5113561;28;20176;-49
2022/08/16 08:34:49;;;;;;;7.47;4.72;;;25.80;99.90;;;;;;5113469;28;20832;-50
2022/08/16 08:37:15;;;;;;;5.95;4.72;;;25.70;99.90;;;;;;5112839;28;20164;-48
2022/08/16 08:39:41;;;;;;;6.32;4.93;;;25.70;99.90;;;;;;5110977;28;20255;-48
2022/08/16 08:42:07;;;;;;;6.22;4.80;;;25.70;99.90;;;;;;5112692;28;20523;-48
2022/08/16 08:44:33;;;;;;;7.80;4.57;;;25.90;99.90;;;;;;5112901;28;20183;-47
2022/08/16 08:47:05;;;;;;;4.93;4.53;;;26.10;99.90;;;;;;5112714;28;20220;-43
2022/08/16 08:49:32;;;;;;;7.30;4.70;;;26.20;99.90;;;;;;5112880;28;20511;-46
2022/08/16 08:51:58;;;;;;;5.40;4.90;;;26.30;99.90;;;;;;5112452;28;20190;-42
2022/08/16 08:54:25;;;;;;;6.50;4.35;;;26.30;99.90;;;;;;5112690;28;20730;-43
2022/08/16 08:56:53;;;;;;;5.40;4.55;;;26.40;99.90;;;;;;5112759;28;20166;-45
2022/08/16 08:59:19;;;;;;;6.55;4.78;;;26.50;99.90;;;;;;5112729;28;20225;-48
2022/08/16 09:01:46;;;;;;;5.30;4.75;;;26.40;99.90;;;;;;5112668;28;20168;-47
2022/08/16 09:04:12;;;;;;;6.88;5.43;;;26.50;99.90;;;;;;5112179;28;20302;-45
2022/08/16 09:06:38;;;;;;;9.85;4.90;;;26.80;99.90;;;;;;5112242;28;20243;-45
2022/08/16 09:09:05;;;;;;;4.88;4.50;;;26.70;99.90;;;;;;5112201;28;20281;-43
2022/08/16 09:11:33;;;;;;;6.97;4.88;;;26.50;99.90;;;;;;5112361;28;20172;-49
2022/08/16 09:13:58;;;;;;;9.20;5.22;;;26.10;99.90;;;;;;5111738;28;20235;-46
2022/08/16 09:16:24;;;;;;;9.00;5.10;;;26.20;99.90;;;;;;5112002;28;20632;-42
2022/08/16 09:18:50;;;;;;;7.15;4.95;;;26.30;99.90;;;;;;5112559;28;20206;-43
2022/08/16 09:21:16;;;;;;;8.48;5.18;;;26.10;99.90;;;;;;5111961;28;20603;-47
2022/08/16 09:23:41;;;;;;;7.28;4.78;;;26.00;99.90;;;;;;5111967;28;20597;-46
2022/08/16 09:26:09;;;;;;;6.93;4.85;;;26.20;99.90;;;;;;5111830;28;20164;-45
2022/08/16 09:28:36;;;;;;;5.53;4.85;;;26.40;99.90;;;;;;5111785;28;20163;-43
2022/08/16 09:31:03;;;;;;;8.27;5.00;;;26.10;99.90;;;;;;5111830;28;20168;-43
2022/08/16 09:33:29;;;;;;;5.50;4.55;;;26.20;99.90;;;;;;5111589;28;20170;-46
2022/08/16 09:35:54;;;;;;;8.15;5.97;;;26.40;99.90;;;;;;5111542;28;20168;-43
2022/08/16 09:38:22;;;;;;;9.35;5.18;;;26.20;99.90;;;;;;5111944;28;20282;-44
2022/08/16 09:40:48;;;;;;;5.63;4.90;;;26.30;99.90;;;;;;5111573;28;20640;-43
2022/08/16 09:43:17;;;;;;;7.38;4.75;;;26.30;99.90;;;;;;5111642;28;20188;-42
2022/08/16 09:45:44;;;;;;;13.77;5.90;;;26.60;99.90;;;;;;5111534;28;20184;-43
2022/08/16 09:48:11;;;;;;;5.25;4.75;;;26.60;99.90;;;;;;5111459;28;20629;-43
2022/08/16 09:50:38;;;;;;;5.80;4.43;;;26.60;99.90;;;;;;5093117;28;20172;-44
2022/08/16 09:53:08;;;;;;;7.57;4.82;;;26.50;99.90;;;;;;5111328;28;20172;-45
2022/08/16 09:55:34;;;;;;;9.27;5.55;;;26.50;99.90;;;;;;5111743;28;20234;-44
2022/08/16 09:57:59;;;;;;;8.50;5.18;;;26.40;99.90;;;;;;5111215;28;20695;-44
2022/08/16 10:00:25;;;;;;;5.90;5.30;;;26.70;99.90;;;;;;5111238;28;20247;-43
2022/08/16 10:02:52;;;;;;;7.32;5.20;;;26.60;99.90;;;;;;5111562;28;20167;-43
2022/08/16 10:05:19;;;;;;;6.03;4.80;;;26.50;99.90;;;;;;5111383;28;20229;-43
2022/08/16 10:07:46;;;;;;;8.52;4.72;;;26.50;99.90;;;;;;5111133;28;20168;-43
2022/08/16 10:10:13;;;;;;;6.72;4.35;;;26.30;99.90;;;;;;5110932;28;20573;-44
2022/08/16 10:15:24;;;;;;;7.57;5.20;;;26.50;99.90;;;;;;5111348;28;20282;-43
2022/08/16 10:17:53;;;;;;;8.57;4.72;;;26.80;99.90;;;;;;5111270;28;20170;-44
2022/08/16 10:20:19;;;;;;;6.45;5.18;;;26.70;99.90;;;;;;5111566;28;20184;-43
2022/08/16 10:22:45;;;;;;;6.45;4.70;;;26.70;99.90;;;;;;5110993;28;20181;-44
2022/08/16 10:25:12;;;;;;;6.45;4.65;;;26.70;99.90;;;;;;5110988;28;20651;-43
2022/08/16 10:27:38;;;;;;;5.78;5.18;;;26.70;99.90;;;;;;5110718;28;20706;-42
2022/08/16 10:30:05;;;;;;;8.00;5.18;;;26.50;99.90;;;;;;5092533;28;20263;-43
2022/08/16 10:32:31;;;;;;;5.75;4.00;;;26.70;99.90;;;;;;5110741;28;20736;-47
2022/08/16 10:34:57;;;;;;;5.53;4.15;;;27.10;99.90;;;;;;5110723;28;20214;-50
2022/08/16 10:37:23;;;;;;;6.75;3.90;;;26.90;99.90;;;;;;5111129;28;20160;-49
2022/08/16 10:39:48;;;;;;;7.20;4.55;;;27.10;99.90;;;;;;5111115;28;20303;-49
2022/08/16 10:42:16;;;;;;;7.35;4.60;;;27.20;99.90;;;;;;5113202;28;20216;-48
2022/08/16 10:44:42;;;;;;;5.75;4.28;;;26.60;99.90;;;;;;5117840;28;20179;-50
2022/08/16 10:47:08;;;;;;;5.70;4.13;;;26.90;99.90;;;;;;5117797;28;20163;-44
2022/08/16 10:49:35;;;;;;;6.82;4.00;;;26.90;99.90;;;;;;5117669;27;20179;-46
2022/08/16 10:52:01;;;;;;;4.50;4.10;;;26.80;99.90;;;;;;5117388;28;20276;-49
2022/08/16 10:54:27;;;;;;;4.85;4.40;;;27.00;99.90;;;;;;5116354;27;20547;-49
2022/08/16 10:56:54;;;;;;;6.55;3.85;;;27.10;99.90;;;;;;5118034;27;20630;-45
2022/08/16 10:59:20;;;;;;;6.32;4.53;;;27.70;99.90;;;;;;5117826;28;20182;-47
2022/08/16 11:01:45;;;;;;;5.40;4.05;;;28.00;99.90;;;;;;5117355;27;20247;-49
2022/08/16 11:04:12;;;;;;;5.25;4.60;;;28.30;99.90;;;;;;5117379;28;20194;-48
2022/08/16 11:06:38;;;;;;;5.85;4.18;;;28.40;99.90;;;;;;5117613;27;20174;-49
2022/08/16 11:09:03;;;;;;;11.25;4.53;;;28.70;99.90;;;;;;5117350;28;20156;-49
2022/08/16 11:11:29;;;;;;;8.38;4.32;;;28.70;99.90;;;;;;5098967;28;20627;-46
2022/08/16 11:13:55;;;;;;;4.57;3.88;;;28.20;99.90;;;;;;5116978;28;20272;-43
2022/08/16 11:16:22;;;;;;;5.53;4.00;;;28.30;99.90;;;;;;5117587;28;20192;-50
2022/08/16 11:18:47;;;;;;;7.72;4.32;;;28.50;99.90;;;;;;5117146;28;20163;-49
2022/08/16 11:21:14;;;;;;;6.65;3.72;;;28.70;99.90;;;;;;5117098;28;20247;-49
2022/08/16 11:23:40;;;;;;;7.10;4.30;;;28.40;99.90;;;;;;5117241;27;20203;-50
2022/08/16 11:26:06;;;;;;;5.03;3.60;;;28.30;99.90;;;;;;5117200;28;20214;-49
2022/08/16 11:28:33;;;;;;;6.10;4.10;;;28.10;99.90;;;;;;5117244;28;20284;-42
2022/08/16 11:30:59;;;;;;;4.57;3.55;;;28.40;99.90;;;;;;5117045;28;20533;-50
2022/08/16 11:33:25;;;;;;;5.68;3.47;;;28.80;99.90;;;;;;5117150;28;20168;-43
2022/08/16 11:35:50;;;;;;;4.35;3.50;;;29.00;99.90;;;;;;5117433;28;20220;-45
2022/08/16 11:38:19;;;;;;;3.60;2.97;;;28.80;99.90;;;;;;5117053;28;20164;-48
2022/08/16 11:40:56;;;;;;;4.38;3.30;;;28.30;99.90;;;;;;5116976;28;20168;-43
2022/08/16 11:43:30;;;;;;;4.65;3.10;;;28.40;99.90;;;;;;5117191;27;20212;-44
2022/08/16 11:45:58;;;;;;;7.60;3.70;;;28.50;99.90;;;;;;5116971;28;20160;-47
2022/08/16 11:48:26;;;;;;;8.05;3.60;;;29.00;99.90;;;;;;5117002;28;20191;-43
2022/08/16 11:50:53;;;;;;;4.00;3.60;;;29.40;99.90;;;;;;5117264;28;20258;-45
2022/08/16 11:53:20;;;;;;;5.97;3.88;;;29.30;99.90;;;;;;5116275;28;20611;-44
2022/08/16 11:55:47;;;;;;;5.88;3.58;;;29.60;99.90;;;;;;5113856;28;20172;-44
2022/08/16 11:58:13;;;;;;;4.40;3.75;;;29.90;99.90;;;;;;5113897;28;20168;-45
2022/08/16 12:00:41;;;;;;;4.10;3.63;;;29.60;99.90;;;;;;5113596;28;20635;-45
2022/08/16 12:03:07;;;;;;;4.57;3.40;;;29.50;99.90;;;;;;5113723;28;20191;-47
2022/08/16 12:05:34;;;;;;;6.22;3.30;;;29.80;99.90;;;;;;5113429;28;20160;-49
2022/08/16 12:08:01;;;;;;;5.65;3.55;;;30.20;99.90;;;;;;5113791;28;20523;-43
2022/08/16 12:10:27;;;;;;;8.98;3.40;;;30.50;99.90;;;;;;5113534;28;20168;-43
2022/08/16 12:12:53;;;;;;;4.55;3.50;;;30.70;99.90;;;;;;5113545;28;20515;-49
2022/08/16 12:15:19;;;;;;;6.03;3.58;;;30.40;99.90;;;;;;5113633;28;20203;-46
2022/08/16 12:17:46;;;;;;;6.53;3.50;;;30.40;99.90;;;;;;5113258;28;20247;-44
2022/08/16 12:20:24;;;;;;;6.97;3.95;;;30.10;99.90;;;;;;5113411;28;20188;-48
2022/08/16 12:22:54;;;;;;;4.85;3.75;;;29.70;99.90;;;;;;5113777;28;20172;-47
2022/08/16 12:25:22;;;;;;;5.38;3.45;;;29.60;99.90;;;;;;5113438;28;20283;-48
2022/08/16 12:27:48;;;;;;;4.68;3.80;;;29.50;99.90;;;;;;5113310;28;20233;-49
2022/08/16 12:30:18;;;;;;;6.38;3.47;;;29.20;99.90;;;;;;5113043;28;20213;-48
2022/08/16 12:32:43;;;;;;;4.63;3.47;;;29.30;99.90;;;;;;5112980;28;20209;-42
2022/08/16 12:35:13;;;;;;;5.85;3.60;;;29.30;99.90;;;;;;5112732;28;20216;-46
2022/08/16 12:37:40;;;;;;;3.90;3.35;;;29.40;99.90;;;;;;5112878;28;20209;-45
2022/08/16 12:40:09;;;;;;;6.18;3.83;;;29.50;99.90;;;;;;5112830;28;20173;-47
2022/08/16 12:42:35;;;;;;;5.70;3.35;;;30.00;99.90;;;;;;5112879;28;20239;-46
2022/08/16 12:45:06;;;;;;;6.28;3.42;;;30.20;99.90;;;;;;5112654;28;20271;-43